Vinegar Bend, Alabama
Current Conditions -  °F | °C
As of 11:56 AM on Friday 28 Nov 2014 (Local Time) from KMOB Reporting Station
Clear Clear  
Wind Chill: 54°   Ceiling: Unl
Heat Index: 54°   Visibility: 10mi
Dew Point: 27°   Wind: 3mph
Humidity: 35%   Direction: NA
Pressure: 30.38"   Gusts: NA
Location:  31.26°N, 88.34°W
Report Text: KMOB 281756Z VRB03KT 10SM CLR 12/M03 A3038 RMK AO2 SLP287 T01221028 10122 20011 58025
Loading
Personal Weather Stations






























Interactive Weather Map New forecast layout! Learn more

10-Day Weather Forecast

Advertisements
Track Severe Weather on mobile